Aeroboteco Virtual Airlines! Uma nuvem a frente.



 INFORMAÇÕES METEOROLÓGICAS
METAR FOR LYBE
ADDS - METARS form results

(1929 UTC 26 May 2019)
Data provider http://aviationweather.gov/metar/data/
 
METAR text: LYBE 261900Z 08005KT CAVOK 22/13 Q1013 NOSIG
Conditions at: LYBE (BELGRADE/SURCIN , CS) observed 1900 UTC 26 May 2019
Temperature: 22.0°C (72°F)
Dewpoint: 13.0°C (55°F) [RH = 57%]
Pressure (altimeter): 29.91 inches Hg (1013.0 mb)
Winds: from the E (80 degrees) at 6 MPH (5 knots; 2.6 m/s)
Visibility: 6 or more miles (10+ km)
Ceiling: ceiling and visibility are OK
Clouds: unknown
Weather: no significant weather observed at this time

METAR text: LYBE 261830Z 08004KT CAVOK 22/13 Q1013 NOSIG
Conditions at: LYBE (BELGRADE/SURCIN , CS) observed 1830 UTC 26 May 2019
Temperature: 22.0°C (72°F)
Dewpoint: 13.0°C (55°F) [RH = 57%]
Pressure (altimeter): 29.91 inches Hg (1013.0 mb)
Winds: from the E (80 degrees) at 5 MPH (4 knots; 2.1 m/s)
Visibility: 6 or more miles (10+ km)
Ceiling: ceiling and visibility are OK
Clouds: unknown
Weather: no significant weather observed at this time

Forecast for: LYBE (BELGRADE/SURCIN , CS)
Text: TAF LYBE 261700Z 2618/2718 12008KT CAVOK TX25/2712Z TN16/2703Z
Forecast period: 1800 UTC 26 May 2019 to 1800 UTC 27 May 2019
Forecast type: FROM: standard forecast or significant change
Winds: from the ESE (120 degrees) at 9 MPH (8 knots; 4.1 m/s)
Visibility: 6 or more miles 10+ km)
Ceiling: unknown
Clouds: missing
Weather: no significant weather forecast for this period
Text: PROB40
Forecast period: 1400 to 1800 UTC 27 May 2019
Forecast type: TEMPORARY: The following changes expected for less than half the time period
Visibility: 3 miles (5 km)
Ceiling: 4500 feet AGL
Clouds: scattered clouds at 3300 feet AGL
broken clouds at 4500 feet AGL
Weather: SHRA  (rain showers)

 MAPA DO AEROPORTO

 INFORMAÇÕES DA PISTA
Pista 12 Tamanho da pista 11155 ft Largura da pista 148 ft
Elevação da pista 318 ft Ranhura da pista 0 ft Proa da pista 122
Pista 30 Tamanho da pista 11155 ft Largura da pista 148 ft
Elevação da pista 335 ft Ranhura da pista 1312 ft Proa da pista 302

 FREQUÊNCIAS DO AEROPORTO
Tipo APP Nome APP Frequência 119.1 MHZ
Tipo ATIS Nome INFO Frequência 122.925 MHZ
Tipo TWR Nome TWR Frequência 118.1 MHZ

 AUXÍLIOS DE NAVEGAÇÃO PRÓXIMOS AO AEROPORTO
Tipo VOR-DME Nome Beograd Frequência 112300 KHZ
Tipo NDB Nome Beograd Frequência 316 KHZ
Tipo NDB Nome Beograd Frequência 380 KHZ
Tipo NDB Nome Beograd Frequência 355 KHZ